sensor_id;sensor_type;location;lat;lon;timestamp;P1;durP1;ratioP1;P2;durP2;ratioP2
35462;SDS011;21578;47.892;9.970;2023-08-12T00:02:55;2.07;;;1.97;;
35462;SDS011;21578;47.892;9.970;2023-08-12T00:07:42;2.60;;;2.30;;
35462;SDS011;21578;47.892;9.970;2023-08-12T00:12:31;2.53;;;2.13;;
35462;SDS011;21578;47.892;9.970;2023-08-12T00:17:18;3.80;;;1.80;;
35462;SDS011;21578;47.892;9.970;2023-08-12T00:22:06;2.40;;;2.20;;
35462;SDS011;21578;47.892;9.970;2023-08-12T00:26:53;2.00;;;1.90;;
35462;SDS011;21578;47.892;9.970;2023-08-12T00:31:40;2.00;;;1.83;;
35462;SDS011;21578;47.892;9.970;2023-08-12T00:36:27;1.90;;;1.80;;
35462;SDS011;21578;47.892;9.970;2023-08-12T00:41:15;2.50;;;2.30;;
35462;SDS011;21578;47.892;9.970;2023-08-12T00:46:02;2.07;;;1.83;;
35462;SDS011;21578;47.892;9.970;2023-08-12T00:50:49;2.40;;;2.20;;
35462;SDS011;21578;47.892;9.970;2023-08-12T00:55:36;2.33;;;2.13;;
35462;SDS011;21578;47.892;9.970;2023-08-12T01:00:25;2.17;;;1.80;;
35462;SDS011;21578;47.892;9.970;2023-08-12T01:05:12;3.20;;;2.20;;
35462;SDS011;21578;47.892;9.970;2023-08-12T01:09:59;2.10;;;2.00;;
35462;SDS011;21578;47.892;9.970;2023-08-12T01:14:47;1.87;;;1.77;;
35462;SDS011;21578;47.892;9.970;2023-08-12T01:19:43;2.63;;;2.43;;
35462;SDS011;21578;47.892;9.970;2023-08-12T01:24:37;3.73;;;2.17;;
35462;SDS011;21578;47.892;9.970;2023-08-12T01:29:25;3.47;;;1.93;;
35462;SDS011;21578;47.892;9.970;2023-08-12T01:34:12;2.97;;;2.30;;
35462;SDS011;21578;47.892;9.970;2023-08-12T01:39:06;1.93;;;1.83;;
35462;SDS011;21578;47.892;9.970;2023-08-12T01:43:56;2.50;;;1.70;;
35462;SDS011;21578;47.892;9.970;2023-08-12T01:48:43;2.60;;;2.40;;
35462;SDS011;21578;47.892;9.970;2023-08-12T01:53:30;2.30;;;2.10;;
35462;SDS011;21578;47.892;9.970;2023-08-12T01:58:17;2.53;;;1.93;;
35462;SDS011;21578;47.892;9.970;2023-08-12T02:03:05;1.93;;;1.83;;
35462;SDS011;21578;47.892;9.970;2023-08-12T02:07:52;2.00;;;1.90;;
35462;SDS011;21578;47.892;9.970;2023-08-12T02:12:39;2.13;;;2.00;;
35462;SDS011;21578;47.892;9.970;2023-08-12T02:17:26;2.40;;;1.70;;
35462;SDS011;21578;47.892;9.970;2023-08-12T02:22:14;3.90;;;2.30;;
35462;SDS011;21578;47.892;9.970;2023-08-12T02:27:01;2.03;;;1.93;;
35462;SDS011;21578;47.892;9.970;2023-08-12T02:31:48;2.20;;;2.00;;
35462;SDS011;21578;47.892;9.970;2023-08-12T02:36:35;2.10;;;2.00;;
35462;SDS011;21578;47.892;9.970;2023-08-12T02:41:24;2.03;;;1.90;;
35462;SDS011;21578;47.892;9.970;2023-08-12T02:46:10;2.30;;;2.00;;
35462;SDS011;21578;47.892;9.970;2023-08-12T02:50:57;2.00;;;1.90;;
35462;SDS011;21578;47.892;9.970;2023-08-12T02:55:44;2.23;;;2.03;;
35462;SDS011;21578;47.892;9.970;2023-08-12T03:00:33;2.23;;;2.07;;
35462;SDS011;21578;47.892;9.970;2023-08-12T03:05:20;2.30;;;2.10;;
35462;SDS011;21578;47.892;9.970;2023-08-12T03:10:07;2.00;;;1.90;;
35462;SDS011;21578;47.892;9.970;2023-08-12T03:14:54;4.17;;;2.07;;
35462;SDS011;21578;47.892;9.970;2023-08-12T03:19:43;2.23;;;2.10;;
35462;SDS011;21578;47.892;9.970;2023-08-12T03:24:30;2.30;;;1.90;;
35462;SDS011;21578;47.892;9.970;2023-08-12T03:29:17;2.40;;;2.20;;
35462;SDS011;21578;47.892;9.970;2023-08-12T03:34:04;2.10;;;2.00;;
35462;SDS011;21578;47.892;9.970;2023-08-12T03:38:52;1.77;;;1.67;;
35462;SDS011;21578;47.892;9.970;2023-08-12T03:43:39;2.40;;;2.20;;
35462;SDS011;21578;47.892;9.970;2023-08-12T03:48:26;2.47;;;2.03;;
35462;SDS011;21578;47.892;9.970;2023-08-12T03:53:13;2.43;;;1.77;;
35462;SDS011;21578;47.892;9.970;2023-08-12T03:58:01;2.20;;;2.00;;
35462;SDS011;21578;47.892;9.970;2023-08-12T04:02:48;2.03;;;1.90;;
35462;SDS011;21578;47.892;9.970;2023-08-12T04:07:35;2.33;;;2.13;;
35462;SDS011;21578;47.892;9.970;2023-08-12T04:12:22;2.67;;;2.43;;
35462;SDS011;21578;47.892;9.970;2023-08-12T04:17:11;2.40;;;2.00;;
35462;SDS011;21578;47.892;9.970;2023-08-12T04:21:58;2.53;;;2.33;;
35462;SDS011;21578;47.892;9.970;2023-08-12T04:26:45;2.00;;;1.90;;
35462;SDS011;21578;47.892;9.970;2023-08-12T04:31:31;2.90;;;2.20;;
35462;SDS011;21578;47.892;9.970;2023-08-12T04:36:20;4.27;;;3.63;;
35462;SDS011;21578;47.892;9.970;2023-08-12T04:41:07;3.27;;;2.40;;
35462;SDS011;21578;47.892;9.970;2023-08-12T04:45:54;2.83;;;2.30;;
35462;SDS011;21578;47.892;9.970;2023-08-12T04:50:41;2.73;;;2.53;;
35462;SDS011;21578;47.892;9.970;2023-08-12T04:55:29;4.90;;;2.60;;
35462;SDS011;21578;47.892;9.970;2023-08-12T05:00:17;2.53;;;2.33;;
35462;SDS011;21578;47.892;9.970;2023-08-12T05:05:04;3.37;;;2.60;;
35462;SDS011;21578;47.892;9.970;2023-08-12T05:09:54;3.03;;;2.70;;
35462;SDS011;21578;47.892;9.970;2023-08-12T05:14:42;2.60;;;2.40;;
35462;SDS011;21578;47.892;9.970;2023-08-12T05:19:29;3.10;;;2.90;;
35462;SDS011;21578;47.892;9.970;2023-08-12T05:24:16;2.73;;;2.53;;
35462;SDS011;21578;47.892;9.970;2023-08-12T05:29:03;3.73;;;2.60;;
35462;SDS011;21578;47.892;9.970;2023-08-12T05:33:52;2.90;;;2.60;;
35462;SDS011;21578;47.892;9.970;2023-08-12T05:38:38;6.77;;;4.37;;
35462;SDS011;21578;47.892;9.970;2023-08-12T05:43:25;2.57;;;2.37;;
35462;SDS011;21578;47.892;9.970;2023-08-12T05:48:12;2.40;;;2.20;;
35462;SDS011;21578;47.892;9.970;2023-08-12T05:53:01;2.70;;;2.50;;
35462;SDS011;21578;47.892;9.970;2023-08-12T05:57:48;3.73;;;2.47;;
35462;SDS011;21578;47.892;9.970;2023-08-12T06:02:34;2.57;;;2.27;;
35462;SDS011;21578;47.892;9.970;2023-08-12T06:07:21;2.43;;;2.33;;
35462;SDS011;21578;47.892;9.970;2023-08-12T06:12:10;2.57;;;2.37;;
35462;SDS011;21578;47.892;9.970;2023-08-12T06:16:57;2.57;;;2.40;;
35462;SDS011;21578;47.892;9.970;2023-08-12T06:21:44;2.30;;;2.20;;
35462;SDS011;21578;47.892;9.970;2023-08-12T06:26:31;2.53;;;2.33;;
35462;SDS011;21578;47.892;9.970;2023-08-12T06:31:19;3.30;;;3.00;;
35462;SDS011;21578;47.892;9.970;2023-08-12T06:36:06;4.37;;;3.97;;
35462;SDS011;21578;47.892;9.970;2023-08-12T06:40:54;2.63;;;1.83;;
35462;SDS011;21578;47.892;9.970;2023-08-12T06:45:41;2.10;;;2.00;;
35462;SDS011;21578;47.892;9.970;2023-08-12T06:50:29;2.57;;;2.37;;
35462;SDS011;21578;47.892;9.970;2023-08-12T06:55:18;2.40;;;2.20;;
35462;SDS011;21578;47.892;9.970;2023-08-12T15:49:42;3.10;;;1.90;;
35462;SDS011;21578;47.892;9.970;2023-08-12T15:54:29;3.63;;;2.05;;
35462;SDS011;21578;47.892;9.970;2023-08-12T15:59:16;4.00;;;1.80;;
35462;SDS011;21578;47.892;9.970;2023-08-12T16:04:03;3.70;;;2.35;;
35462;SDS011;21578;47.892;9.970;2023-08-12T16:08:52;2.25;;;2.03;;
35462;SDS011;21578;47.892;9.970;2023-08-12T16:13:39;2.35;;;2.03;;
35462;SDS011;21578;47.892;9.970;2023-08-12T16:18:26;3.05;;;2.25;;
35462;SDS011;21578;47.892;9.970;2023-08-12T16:23:12;4.65;;;3.65;;
35462;SDS011;21578;47.892;9.970;2023-08-12T16:28:01;3.63;;;2.22;;
35462;SDS011;21578;47.892;9.970;2023-08-12T16:32:48;3.60;;;2.33;;
35462;SDS011;21578;47.892;9.970;2023-08-12T16:37:35;4.32;;;2.33;;
35462;SDS011;21578;47.892;9.970;2023-08-12T16:42:22;2.90;;;2.40;;
35462;SDS011;21578;47.892;9.970;2023-08-12T16:47:10;2.45;;;2.25;;
35462;SDS011;21578;47.892;9.970;2023-08-12T16:51:57;4.07;;;2.42;;
35462;SDS011;21578;47.892;9.970;2023-08-12T16:56:44;2.58;;;2.38;;
35462;SDS011;21578;47.892;9.970;2023-08-12T17:01:31;2.50;;;2.15;;
35462;SDS011;21578;47.892;9.970;2023-08-12T17:06:19;3.35;;;2.10;;
35462;SDS011;21578;47.892;9.970;2023-08-12T17:11:06;3.30;;;2.58;;
35462;SDS011;21578;47.892;9.970;2023-08-12T17:15:53;2.92;;;2.50;;
35462;SDS011;21578;47.892;9.970;2023-08-12T17:20:40;2.53;;;2.05;;
35462;SDS011;21578;47.892;9.970;2023-08-12T17:25:29;2.85;;;2.30;;
35462;SDS011;21578;47.892;9.970;2023-08-12T17:30:17;2.13;;;2.00;;
35462;SDS011;21578;47.892;9.970;2023-08-12T17:35:05;3.53;;;2.78;;
35462;SDS011;21578;47.892;9.970;2023-08-12T17:39:52;6.10;;;2.75;;
35462;SDS011;21578;47.892;9.970;2023-08-12T17:44:40;3.05;;;2.83;;
35462;SDS011;21578;47.892;9.970;2023-08-12T17:49:27;2.63;;;2.47;;
35462;SDS011;21578;47.892;9.970;2023-08-12T17:54:14;3.30;;;2.72;;
35462;SDS011;21578;47.892;9.970;2023-08-12T17:59:01;4.88;;;2.80;;
35462;SDS011;21578;47.892;9.970;2023-08-12T18:03:50;2.60;;;2.40;;
35462;SDS011;21578;47.892;9.970;2023-08-12T18:08:37;2.58;;;2.38;;
35462;SDS011;21578;47.892;9.970;2023-08-12T18:13:24;3.53;;;2.70;;
35462;SDS011;21578;47.892;9.970;2023-08-12T18:18:11;3.25;;;2.80;;
35462;SDS011;21578;47.892;9.970;2023-08-12T18:22:59;3.55;;;2.65;;
35462;SDS011;21578;47.892;9.970;2023-08-12T18:27:47;3.42;;;2.80;;
35462;SDS011;21578;47.892;9.970;2023-08-12T18:32:34;4.13;;;3.10;;
35462;SDS011;21578;47.892;9.970;2023-08-12T18:37:21;5.87;;;2.97;;
35462;SDS011;21578;47.892;9.970;2023-08-12T18:42:09;3.20;;;2.60;;
35462;SDS011;21578;47.892;9.970;2023-08-12T18:46:56;5.97;;;3.23;;
35462;SDS011;21578;47.892;9.970;2023-08-12T18:51:43;3.60;;;3.20;;
35462;SDS011;21578;47.892;9.970;2023-08-12T18:56:30;3.87;;;2.90;;
35462;SDS011;21578;47.892;9.970;2023-08-12T19:01:18;3.87;;;3.07;;
35462;SDS011;21578;47.892;9.970;2023-08-12T19:06:05;4.13;;;2.83;;
35462;SDS011;21578;47.892;9.970;2023-08-12T19:10:53;4.20;;;3.10;;
35462;SDS011;21578;47.892;9.970;2023-08-12T19:15:41;3.97;;;3.10;;
35462;SDS011;21578;47.892;9.970;2023-08-12T19:20:29;5.33;;;3.27;;
35462;SDS011;21578;47.892;9.970;2023-08-12T19:25:16;4.30;;;2.50;;
35462;SDS011;21578;47.892;9.970;2023-08-12T19:30:04;5.53;;;2.93;;
35462;SDS011;21578;47.892;9.970;2023-08-12T19:34:52;3.23;;;2.93;;
35462;SDS011;21578;47.892;9.970;2023-08-12T19:39:40;3.40;;;3.10;;
35462;SDS011;21578;47.892;9.970;2023-08-12T19:44:27;3.73;;;2.90;;
35462;SDS011;21578;47.892;9.970;2023-08-12T19:49:14;4.50;;;2.87;;
35462;SDS011;21578;47.892;9.970;2023-08-12T19:54:01;5.03;;;3.10;;
35462;SDS011;21578;47.892;9.970;2023-08-12T19:58:50;3.80;;;3.40;;
35462;SDS011;21578;47.892;9.970;2023-08-12T20:03:37;4.00;;;3.30;;
35462;SDS011;21578;47.892;9.970;2023-08-12T20:08:23;3.73;;;3.33;;
35462;SDS011;21578;47.892;9.970;2023-08-12T20:13:10;4.47;;;3.23;;
35462;SDS011;21578;47.892;9.970;2023-08-12T20:17:59;5.47;;;3.40;;
35462;SDS011;21578;47.892;9.970;2023-08-12T20:22:46;4.83;;;3.53;;
35462;SDS011;21578;47.892;9.970;2023-08-12T20:27:34;6.30;;;3.70;;
35462;SDS011;21578;47.892;9.970;2023-08-12T20:32:21;4.37;;;3.60;;
35462;SDS011;21578;47.892;9.970;2023-08-12T20:37:14;9.60;;;5.13;;
35462;SDS011;21578;47.892;9.970;2023-08-12T20:42:01;7.37;;;4.37;;
35462;SDS011;21578;47.892;9.970;2023-08-12T20:46:49;7.07;;;4.40;;
35462;SDS011;21578;47.892;9.970;2023-08-12T20:51:36;4.43;;;3.60;;
35462;SDS011;21578;47.892;9.970;2023-08-12T20:56:24;7.07;;;4.30;;
35462;SDS011;21578;47.892;9.970;2023-08-12T21:01:11;6.57;;;5.00;;
35462;SDS011;21578;47.892;9.970;2023-08-12T21:05:58;5.23;;;4.23;;
35462;SDS011;21578;47.892;9.970;2023-08-12T21:10:50;5.17;;;4.00;;
35462;SDS011;21578;47.892;9.970;2023-08-12T21:15:38;5.40;;;4.50;;
35462;SDS011;21578;47.892;9.970;2023-08-12T21:20:25;4.53;;;4.10;;
35462;SDS011;21578;47.892;9.970;2023-08-12T21:25:12;4.20;;;3.60;;
35462;SDS011;21578;47.892;9.970;2023-08-12T21:29:59;7.97;;;4.80;;
35462;SDS011;21578;47.892;9.970;2023-08-12T21:34:48;4.67;;;3.97;;
35462;SDS011;21578;47.892;9.970;2023-08-12T21:39:35;4.67;;;4.20;;
35462;SDS011;21578;47.892;9.970;2023-08-12T21:44:22;5.30;;;4.57;;
35462;SDS011;21578;47.892;9.970;2023-08-12T21:49:08;5.37;;;4.73;;
35462;SDS011;21578;47.892;9.970;2023-08-12T21:53:57;4.93;;;4.37;;
35462;SDS011;21578;47.892;9.970;2023-08-12T21:58:44;5.30;;;4.80;;
35462;SDS011;21578;47.892;9.970;2023-08-12T22:03:31;5.97;;;5.33;;
35462;SDS011;21578;47.892;9.970;2023-08-12T22:08:19;4.33;;;4.00;;
35462;SDS011;21578;47.892;9.970;2023-08-12T22:13:07;6.40;;;4.63;;
35462;SDS011;21578;47.892;9.970;2023-08-12T22:17:54;5.03;;;4.53;;
35462;SDS011;21578;47.892;9.970;2023-08-12T22:22:41;7.27;;;5.03;;
35462;SDS011;21578;47.892;9.970;2023-08-12T22:27:28;5.37;;;4.83;;
35462;SDS011;21578;47.892;9.970;2023-08-12T22:32:16;5.03;;;4.53;;
35462;SDS011;21578;47.892;9.970;2023-08-12T22:37:03;5.63;;;5.10;;
35462;SDS011;21578;47.892;9.970;2023-08-12T22:41:50;5.20;;;4.60;;
35462;SDS011;21578;47.892;9.970;2023-08-12T22:46:37;5.27;;;4.77;;
35462;SDS011;21578;47.892;9.970;2023-08-12T22:51:25;5.40;;;4.80;;
35462;SDS011;21578;47.892;9.970;2023-08-12T22:56:12;5.43;;;5.03;;
35462;SDS011;21578;47.892;9.970;2023-08-12T23:00:59;5.20;;;4.70;;
35462;SDS011;21578;47.892;9.970;2023-08-12T23:05:46;5.43;;;4.93;;
35462;SDS011;21578;47.892;9.970;2023-08-12T23:10:34;5.37;;;4.27;;
35462;SDS011;21578;47.892;9.970;2023-08-12T23:15:21;5.93;;;4.30;;
35462;SDS011;21578;47.892;9.970;2023-08-12T23:20:08;4.83;;;4.33;;
35462;SDS011;21578;47.892;9.970;2023-08-12T23:24:56;5.80;;;4.20;;
35462;SDS011;21578;47.892;9.970;2023-08-12T23:29:44;5.17;;;4.43;;
35462;SDS011;21578;47.892;9.970;2023-08-12T23:34:31;5.73;;;4.40;;
35462;SDS011;21578;47.892;9.970;2023-08-12T23:39:18;6.03;;;4.37;;
35462;SDS011;21578;47.892;9.970;2023-08-12T23:44:06;5.03;;;4.33;;
35462;SDS011;21578;47.892;9.970;2023-08-12T23:48:54;4.57;;;3.97;;
35462;SDS011;21578;47.892;9.970;2023-08-12T23:53:41;6.60;;;4.27;;
35462;SDS011;21578;47.892;9.970;2023-08-12T23:58:28;4.57;;;4.10;;
